createdAt,value
2023-05-06T00:01:05.853Z,8.05
2023-05-06T00:03:32.760Z,8.05
2023-05-06T00:05:59.649Z,8.10
2023-05-06T00:08:26.300Z,8.17
2023-05-06T00:10:52.921Z,8.10
2023-05-06T00:13:19.727Z,8.02
2023-05-06T00:15:46.513Z,8.04
2023-05-06T00:18:15.046Z,8.12
2023-05-06T00:20:42.015Z,8.03
2023-05-06T00:23:08.833Z,7.99
2023-05-06T00:25:35.710Z,7.95
2023-05-06T00:28:02.380Z,7.91
2023-05-06T00:30:29.180Z,7.87
2023-05-06T00:32:56.182Z,7.88
2023-05-06T00:35:22.979Z,7.81
2023-05-06T00:38:07.852Z,7.77
2023-05-06T00:40:34.581Z,7.67
2023-05-06T00:43:01.405Z,7.60
2023-05-06T00:45:28.172Z,7.49
2023-05-06T00:47:55.216Z,7.39
2023-05-06T00:50:22.636Z,7.30
2023-05-06T00:52:49.892Z,7.21
2023-05-06T00:55:17.003Z,7.14
2023-05-06T00:57:43.803Z,7.08
2023-05-06T01:00:11.919Z,7.03
2023-05-06T01:02:47.069Z,6.99
2023-05-06T01:05:20.963Z,6.91
2023-05-06T01:07:58.818Z,6.85
2023-05-06T01:10:32.353Z,6.91
2023-05-06T01:13:19.747Z,6.85
2023-05-06T01:15:48.093Z,6.82
2023-05-06T01:18:17.597Z,6.75
2023-05-06T01:20:52.177Z,6.68
2023-05-06T01:23:19.038Z,6.69
2023-05-06T01:25:46.010Z,6.69
2023-05-06T01:28:13.703Z,6.62
2023-05-06T01:30:52.498Z,6.47
2023-05-06T01:33:45.435Z,6.43
2023-05-06T01:36:37.894Z,6.41
2023-05-06T01:39:07.546Z,6.40
2023-05-06T01:41:34.885Z,6.38
2023-05-06T01:44:01.939Z,6.37
2023-05-06T01:46:29.974Z,6.30
2023-05-06T01:48:57.140Z,6.32
2023-05-06T01:51:23.978Z,6.23
2023-05-06T01:53:50.734Z,6.09
2023-05-06T01:56:17.770Z,5.96
2023-05-06T01:58:44.478Z,5.86
2023-05-06T02:01:11.193Z,5.71
2023-05-06T02:03:38.006Z,5.69
2023-05-06T02:06:04.925Z,5.71
2023-05-06T02:08:31.622Z,5.69
2023-05-06T02:10:58.307Z,5.72
2023-05-06T02:13:25.025Z,5.67
2023-05-06T02:15:55.161Z,5.70
2023-05-06T02:18:22.254Z,5.71
2023-05-06T02:20:48.970Z,5.65
2023-05-06T02:23:15.959Z,5.75
2023-05-06T02:25:42.939Z,5.75
2023-05-06T02:28:09.652Z,5.78
2023-05-06T02:30:36.702Z,5.74
2023-05-06T02:33:03.583Z,5.65
2023-05-06T02:35:30.386Z,5.66
2023-05-06T02:37:57.079Z,5.57
2023-05-06T02:40:23.817Z,5.54
2023-05-06T02:42:50.568Z,5.41
2023-05-06T02:45:17.306Z,5.42
2023-05-06T02:47:44.052Z,5.31
2023-05-06T02:50:11.144Z,5.40
2023-05-06T02:52:37.968Z,5.34
2023-05-06T02:55:05.883Z,5.38
2023-05-06T02:57:32.621Z,5.36
2023-05-06T02:59:59.331Z,5.30
2023-05-06T03:02:26.126Z,5.34
2023-05-06T03:04:52.851Z,5.32
2023-05-06T03:07:19.954Z,5.43
2023-05-06T03:09:46.723Z,5.34
2023-05-06T03:12:13.400Z,5.25
2023-05-06T03:14:40.120Z,5.15
2023-05-06T03:17:06.823Z,5.03
2023-05-06T03:19:33.548Z,4.90
2023-05-06T03:22:00.233Z,4.89
2023-05-06T03:24:26.828Z,4.86
2023-05-06T03:26:53.555Z,4.91
2023-05-06T03:29:20.424Z,4.93
2023-05-06T03:31:50.810Z,4.84
2023-05-06T03:34:17.557Z,4.89
2023-05-06T03:36:44.297Z,4.85
2023-05-06T03:39:11.052Z,4.88
2023-05-06T03:41:37.933Z,4.93
2023-05-06T03:44:04.892Z,4.93
2023-05-06T03:46:31.688Z,4.96
2023-05-06T03:49:00.775Z,4.94
2023-05-06T03:51:27.754Z,4.92
2023-05-06T03:53:55.011Z,4.84
2023-05-06T03:56:22.690Z,4.91
2023-05-06T03:58:49.390Z,5.01
2023-05-06T04:01:18.216Z,5.09
2023-05-06T04:03:45.118Z,5.07
2023-05-06T04:06:11.873Z,5.14
2023-05-06T04:08:38.786Z,5.12
2023-05-06T04:11:06.549Z,5.17
2023-05-06T04:13:34.642Z,5.20
2023-05-06T04:16:01.742Z,5.11
2023-05-06T04:18:28.431Z,5.23
2023-05-06T04:20:55.128Z,5.18
2023-05-06T04:23:22.108Z,5.27
2023-05-06T04:25:49.433Z,5.33
2023-05-06T04:28:16.729Z,5.35
2023-05-06T04:30:44.361Z,5.35
2023-05-06T04:33:11.203Z,5.47
2023-05-06T04:35:38.722Z,5.46
2023-05-06T04:38:06.240Z,5.39
2023-05-06T04:40:35.431Z,5.30
2023-05-06T04:43:03.036Z,5.35
2023-05-06T04:45:30.143Z,5.36
2023-05-06T04:47:56.974Z,5.37
2023-05-06T04:50:23.829Z,5.29
2023-05-06T04:52:50.755Z,5.35
2023-05-06T04:55:17.707Z,5.43
2023-05-06T04:57:44.637Z,5.50
2023-05-06T05:00:11.945Z,5.45
2023-05-06T05:02:38.955Z,5.50
2023-05-06T05:05:06.204Z,5.61
2023-05-06T05:07:32.947Z,5.73
2023-05-06T05:09:59.838Z,5.84
2023-05-06T05:12:26.872Z,6.01
2023-05-06T05:14:53.692Z,6.06
2023-05-06T05:17:20.728Z,6.22
2023-05-06T05:19:47.558Z,6.26
2023-05-06T05:22:14.616Z,6.44
2023-05-06T05:24:41.772Z,6.40
2023-05-06T05:27:08.749Z,6.48
2023-05-06T05:29:35.834Z,6.49
2023-05-06T05:32:02.882Z,6.67
2023-05-06T05:34:30.310Z,6.82
2023-05-06T05:36:58.369Z,6.97
2023-05-06T05:39:25.644Z,7.14
2023-05-06T05:41:52.911Z,7.23
2023-05-06T05:44:20.089Z,7.32
2023-05-06T05:46:47.419Z,7.32
2023-05-06T05:49:14.707Z,7.47
2023-05-06T05:51:44.066Z,7.57
2023-05-06T05:54:11.257Z,7.56
2023-05-06T05:56:38.616Z,7.66
2023-05-06T05:59:07.450Z,7.99
2023-05-06T06:01:37.336Z,8.12
2023-05-06T06:04:07.496Z,8.38
2023-05-06T06:06:34.963Z,8.51
2023-05-06T06:09:08.200Z,8.74
2023-05-06T06:11:35.721Z,9.09
2023-05-06T06:14:04.023Z,9.23
2023-05-06T06:16:31.295Z,9.39
2023-05-06T06:18:59.903Z,9.35
2023-05-06T06:21:27.994Z,9.27
2023-05-06T06:23:56.390Z,9.15
2023-05-06T06:26:23.472Z,9.26
2023-05-06T06:28:50.761Z,9.42
2023-05-06T06:31:17.966Z,9.51
2023-05-06T06:33:45.118Z,9.74
2023-05-06T06:36:11.950Z,9.90
2023-05-06T06:38:39.035Z,10.00
2023-05-06T06:41:06.159Z,10.17
2023-05-06T06:43:33.369Z,10.14
2023-05-06T06:46:01.126Z,10.28
2023-05-06T06:48:30.963Z,10.48
2023-05-06T06:50:58.262Z,10.72
2023-05-06T06:53:29.181Z,10.77
2023-05-06T06:55:56.621Z,11.00
2023-05-06T06:58:30.157Z,11.14
2023-05-06T07:00:59.983Z,11.29
2023-05-06T07:03:29.412Z,11.35
2023-05-06T07:05:56.992Z,11.59
2023-05-06T07:08:25.274Z,11.84
2023-05-06T07:10:52.345Z,11.94
2023-05-06T07:13:20.913Z,11.87
2023-05-06T07:15:52.166Z,11.94
2023-05-06T07:18:18.974Z,12.12
2023-05-06T07:20:48.155Z,12.17
2023-05-06T07:23:16.768Z,12.32
2023-05-06T07:25:43.922Z,12.36
2023-05-06T07:28:11.172Z,12.35
2023-05-06T07:30:39.437Z,12.64
2023-05-06T07:33:08.130Z,12.82
2023-05-06T07:35:42.174Z,13.18
2023-05-06T07:38:24.438Z,13.23
2023-05-06T07:43:47.580Z,13.56
2023-05-06T07:46:15.212Z,13.68
2023-05-06T07:48:43.117Z,13.96
2023-05-06T07:51:10.637Z,14.41
2023-05-06T07:53:40.710Z,14.64
2023-05-06T07:56:08.404Z,14.88
2023-05-06T07:58:36.363Z,15.21
2023-05-06T08:01:03.846Z,15.01
2023-05-06T08:03:33.159Z,14.75
2023-05-06T08:06:01.133Z,14.60
2023-05-06T08:08:28.459Z,14.51
2023-05-06T08:10:59.437Z,14.47
2023-05-06T08:13:29.083Z,14.24
2023-05-06T08:15:56.561Z,14.00
2023-05-06T08:18:24.040Z,13.85
2023-05-06T08:20:51.659Z,13.76
2023-05-06T08:23:20.352Z,13.56
2023-05-06T08:25:50.176Z,13.54
2023-05-06T08:28:17.395Z,13.56
2023-05-06T08:30:49.355Z,13.53
2023-05-06T08:33:16.839Z,13.56
2023-05-06T08:35:45.295Z,13.56
2023-05-06T08:38:12.543Z,13.67
2023-05-06T08:40:43.766Z,13.97
2023-05-06T08:43:14.999Z,14.18
2023-05-06T08:45:44.754Z,14.24
2023-05-06T08:48:14.943Z,14.48
2023-05-06T08:50:45.647Z,14.42
2023-05-06T08:53:13.921Z,14.50
2023-05-06T08:55:44.831Z,14.62
2023-05-06T08:58:16.032Z,14.83
2023-05-06T09:00:43.570Z,14.80
2023-05-06T09:03:10.832Z,14.88
2023-05-06T09:05:38.035Z,15.01
2023-05-06T09:08:05.183Z,15.09
2023-05-06T09:10:33.624Z,15.19
2023-05-06T09:13:02.722Z,15.07
2023-05-06T09:15:48.870Z,14.91
2023-05-06T09:18:18.746Z,14.76
2023-05-06T09:20:49.654Z,14.74
2023-05-06T09:23:18.114Z,14.88
2023-05-06T09:25:46.330Z,15.40
2023-05-06T09:28:14.181Z,16.05
2023-05-06T09:30:45.103Z,16.60
2023-05-06T09:33:12.704Z,17.35
2023-05-06T09:35:42.165Z,18.17
2023-05-06T09:38:09.492Z,18.81
2023-05-06T09:40:36.742Z,19.26
2023-05-06T09:43:04.574Z,19.50
2023-05-06T09:45:31.836Z,19.52
2023-05-06T09:47:59.361Z,19.27
2023-05-06T09:50:31.898Z,18.83
2023-05-06T09:53:01.177Z,17.90
2023-05-06T09:55:29.063Z,17.74
2023-05-06T09:57:57.138Z,18.20
2023-05-06T10:00:31.756Z,18.12
2023-05-06T10:02:59.742Z,17.89
2023-05-06T10:05:28.714Z,17.60
2023-05-06T10:07:57.558Z,17.76
2023-05-06T10:10:25.606Z,17.94
2023-05-06T10:12:53.339Z,17.87
2023-05-06T10:15:22.275Z,17.79
2023-05-06T10:17:50.899Z,17.56
2023-05-06T10:20:18.240Z,17.54
2023-05-06T10:22:57.848Z,17.36
2023-05-06T10:25:39.820Z,17.17
2023-05-06T10:28:15.425Z,17.21
2023-05-06T10:30:56.827Z,17.47
2023-05-06T10:33:24.995Z,18.25
2023-05-06T10:36:16.570Z,18.86
2023-05-06T10:38:45.814Z,19.35
2023-05-06T10:41:15.338Z,20.04
2023-05-06T10:43:44.188Z,20.10
2023-05-06T10:46:16.147Z,19.64
2023-05-06T10:49:05.170Z,19.61
2023-05-06T10:51:38.034Z,19.42
2023-05-06T10:54:22.174Z,19.90
2023-05-06T10:56:50.085Z,20.90
2023-05-06T10:59:29.497Z,20.58
2023-05-06T11:02:09.704Z,21.95
2023-05-06T11:04:37.864Z,23.51
2023-05-06T11:07:13.052Z,24.12
2023-05-06T11:10:15.924Z,25.23
2023-05-06T11:12:50.458Z,24.51
2023-05-06T11:15:28.880Z,24.09
2023-05-06T11:17:58.743Z,23.58
2023-05-06T11:20:27.406Z,22.95
2023-05-06T11:22:55.197Z,22.85
2023-05-06T11:25:41.944Z,23.35
2023-05-06T11:28:14.146Z,26.77
2023-05-06T11:30:43.731Z,28.33
2023-05-06T11:33:23.249Z,28.49
2023-05-06T11:35:52.225Z,30.43
2023-05-06T11:38:20.802Z,33.01
2023-05-06T11:40:58.122Z,34.47
2023-05-06T11:43:26.082Z,36.07
2023-05-06T11:45:54.945Z,35.26
2023-05-06T11:48:22.204Z,35.33
2023-05-06T11:50:52.014Z,35.12
2023-05-06T11:53:30.515Z,33.52
2023-05-06T11:56:00.961Z,32.66
2023-05-06T11:58:29.411Z,31.25
2023-05-06T12:00:57.953Z,29.67
2023-05-06T12:03:26.293Z,28.42
2023-05-06T12:05:54.094Z,27.12
2023-05-06T12:08:34.652Z,26.11
2023-05-06T12:11:02.973Z,25.04
2023-05-06T12:13:30.406Z,24.01
2023-05-06T12:16:00.062Z,23.30
2023-05-06T12:18:27.776Z,22.77
2023-05-06T12:20:55.516Z,22.42
2023-05-06T12:23:22.649Z,22.08
2023-05-06T12:26:06.894Z,22.12
2023-05-06T12:28:36.242Z,21.99
2023-05-06T12:31:19.728Z,21.81
2023-05-06T12:33:49.302Z,21.68
2023-05-06T12:36:16.629Z,23.32
2023-05-06T12:39:01.156Z,23.81
2023-05-06T12:41:46.845Z,24.28
2023-05-06T12:44:37.107Z,27.44
2023-05-06T12:47:07.860Z,31.06
2023-05-06T12:49:54.674Z,34.55
2023-05-06T12:52:23.717Z,34.58
2023-05-06T12:54:55.235Z,32.47
2023-05-06T12:57:22.695Z,30.08
2023-05-06T12:59:50.231Z,27.24
2023-05-06T13:02:17.515Z,26.12
2023-05-06T13:04:45.370Z,25.24
2023-05-06T13:07:12.458Z,24.50
2023-05-06T13:09:39.360Z,24.67
2023-05-06T13:12:07.499Z,24.66
2023-05-06T13:14:35.219Z,24.32
2023-05-06T13:17:04.983Z,25.77
2023-05-06T13:19:33.221Z,27.17
2023-05-06T13:22:01.489Z,28.22
2023-05-06T13:24:29.057Z,28.13
2023-05-06T13:26:57.511Z,27.65
2023-05-06T13:29:24.941Z,26.00
2023-05-06T13:31:52.154Z,25.20
2023-05-06T13:34:19.182Z,24.21
2023-05-06T13:36:47.887Z,23.74
2023-05-06T13:39:14.740Z,24.31
2023-05-06T13:41:41.918Z,24.59
2023-05-06T13:44:08.930Z,24.63
2023-05-06T13:46:35.839Z,24.85
2023-05-06T13:49:02.584Z,24.42
2023-05-06T13:51:32.845Z,23.56
2023-05-06T13:53:59.897Z,23.91
2023-05-06T13:56:27.167Z,23.91
2023-05-06T13:58:54.212Z,24.29
2023-05-06T14:01:22.198Z,24.35
2023-05-06T14:03:49.561Z,24.27
2023-05-06T14:06:16.782Z,23.98
2023-05-06T14:08:45.101Z,23.22
2023-05-06T14:11:12.585Z,22.75
2023-05-06T14:13:40.107Z,22.41
2023-05-06T14:16:07.681Z,22.60
2023-05-06T14:18:35.003Z,22.57
2023-05-06T14:21:02.175Z,22.58
2023-05-06T14:23:29.372Z,22.57
2023-05-06T14:25:56.371Z,21.99
2023-05-06T14:28:23.803Z,21.82
2023-05-06T14:30:51.624Z,21.78
2023-05-06T14:33:18.677Z,21.93
2023-05-06T14:35:46.409Z,21.79
2023-05-06T14:38:13.387Z,21.51
2023-05-06T14:40:40.632Z,21.30
2023-05-06T14:43:08.162Z,21.03
2023-05-06T14:45:35.332Z,20.89
2023-05-06T14:48:03.029Z,20.51
2023-05-06T14:50:31.340Z,20.11
2023-05-06T14:52:58.607Z,20.06
2023-05-06T14:55:26.067Z,19.78
2023-05-06T14:57:53.238Z,19.76
2023-05-06T15:00:20.733Z,19.66
2023-05-06T15:02:48.128Z,19.59
2023-05-06T15:05:15.739Z,19.47
2023-05-06T15:07:42.928Z,19.64
2023-05-06T15:10:10.472Z,19.47
2023-05-06T15:12:37.806Z,19.34
2023-05-06T15:15:05.573Z,19.28
2023-05-06T15:17:32.921Z,19.14
2023-05-06T15:20:00.512Z,19.12
2023-05-06T15:22:28.042Z,19.01
2023-05-06T15:24:55.380Z,18.92
2023-05-06T15:27:22.702Z,18.91
2023-05-06T15:29:49.987Z,18.84
2023-05-06T15:32:17.172Z,18.56
2023-05-06T15:34:44.861Z,18.30
2023-05-06T15:37:12.490Z,18.05
2023-05-06T15:39:39.759Z,17.92
2023-05-06T15:42:06.890Z,17.98
2023-05-06T15:44:34.838Z,17.73
2023-05-06T15:47:01.845Z,17.33
2023-05-06T15:52:00.615Z,15.30
2023-05-06T15:54:28.171Z,14.49
2023-05-06T15:56:56.809Z,13.86
2023-05-06T15:59:23.674Z,13.64
2023-05-06T16:02:25.460Z,13.40
2023-05-06T16:04:37.233Z,13.25
2023-05-06T16:07:03.926Z,13.22
2023-05-06T16:09:30.648Z,13.14
2023-05-06T16:11:57.282Z,13.22
2023-05-06T16:14:23.946Z,13.26
2023-05-06T16:16:50.582Z,13.11
2023-05-06T16:19:17.616Z,13.24
2023-05-06T16:21:44.282Z,13.37
2023-05-06T16:24:10.984Z,13.44
2023-05-06T16:26:37.767Z,13.45
2023-05-06T16:29:04.354Z,13.47
2023-05-06T16:31:31.610Z,13.49
2023-05-06T16:33:58.200Z,13.64
2023-05-06T16:36:24.856Z,13.74
2023-05-06T16:38:51.456Z,13.85
2023-05-06T16:41:18.013Z,13.95
2023-05-06T16:43:44.630Z,14.17
2023-05-06T16:46:11.296Z,14.20
2023-05-06T16:48:37.972Z,14.39
2023-05-06T16:51:04.911Z,14.44
2023-05-06T16:53:31.503Z,14.45
2023-05-06T16:55:58.249Z,14.55
2023-05-06T16:58:24.907Z,14.57
2023-05-06T17:00:54.412Z,14.61
2023-05-06T17:03:21.398Z,14.74
2023-05-06T17:05:48.058Z,14.64
2023-05-06T17:08:16.084Z,14.62
2023-05-06T17:10:43.571Z,14.56
2023-05-06T17:13:10.501Z,14.63
2023-05-06T17:15:37.185Z,14.65
2023-05-06T17:18:04.004Z,14.61
2023-05-06T17:20:31.273Z,14.54
2023-05-06T17:22:58.086Z,14.51
2023-05-06T17:25:24.734Z,14.49
2023-05-06T17:27:51.437Z,14.44
2023-05-06T17:30:18.115Z,14.38
2023-05-06T17:32:44.900Z,14.26
2023-05-06T17:35:12.078Z,14.19
2023-05-06T17:37:39.387Z,14.16
2023-05-06T17:40:07.611Z,14.13
2023-05-06T17:42:34.556Z,14.22
2023-05-06T17:45:01.249Z,14.10
2023-05-06T17:47:30.236Z,14.12
2023-05-06T17:49:57.147Z,14.01
2023-05-06T17:52:26.965Z,13.94
2023-05-06T17:55:16.539Z,13.85
2023-05-06T17:57:40.838Z,13.78
2023-05-06T18:00:09.308Z,13.65
2023-05-06T18:02:36.347Z,13.71
2023-05-06T18:05:03.049Z,13.64
2023-05-06T18:07:29.855Z,13.62
2023-05-06T18:09:56.534Z,13.54
2023-05-06T18:12:24.015Z,13.48
2023-05-06T18:14:50.737Z,13.47
2023-05-06T18:17:17.677Z,13.53
2023-05-06T18:19:44.529Z,13.44
2023-05-06T18:22:11.240Z,13.41
2023-05-06T18:24:38.278Z,13.36
2023-05-06T18:27:04.984Z,13.27
2023-05-06T18:29:33.244Z,13.17
2023-05-06T18:32:01.540Z,13.17
2023-05-06T18:34:28.308Z,13.04
2023-05-06T18:36:54.977Z,12.98
2023-05-06T18:39:23.115Z,12.98
2023-05-06T18:41:49.772Z,12.89
2023-05-06T18:44:16.430Z,12.87
2023-05-06T18:46:43.027Z,12.79
2023-05-06T18:49:09.663Z,12.78
2023-05-06T18:51:36.940Z,12.71
2023-05-06T18:54:03.612Z,12.67
2023-05-06T18:56:30.267Z,12.63
2023-05-06T18:58:57.323Z,12.58
2023-05-06T19:01:25.184Z,12.54
2023-05-06T19:03:52.047Z,12.63
2023-05-06T19:06:18.778Z,12.61
2023-05-06T19:08:45.440Z,12.48
2023-05-06T19:11:16.468Z,12.44
2023-05-06T19:13:46.653Z,12.37
2023-05-06T19:16:14.061Z,12.30
2023-05-06T19:18:40.964Z,12.33
2023-05-06T19:21:11.423Z,12.26
2023-05-06T19:23:38.287Z,12.20
2023-05-06T19:26:06.802Z,12.23
2023-05-06T19:28:34.451Z,12.21
2023-05-06T19:31:01.428Z,12.22
2023-05-06T19:33:28.370Z,12.12
2023-05-06T19:35:55.064Z,12.10
2023-05-06T19:38:21.691Z,12.05
2023-05-06T19:40:48.600Z,12.11
2023-05-06T19:43:15.422Z,12.05
2023-05-06T19:45:42.284Z,12.03
2023-05-06T19:48:09.074Z,12.09
2023-05-06T19:50:36.701Z,12.05
2023-05-06T19:53:03.529Z,12.03
2023-05-06T19:55:30.969Z,11.97
2023-05-06T19:57:57.784Z,11.89
2023-05-06T20:00:27.286Z,11.94
2023-05-06T20:02:56.564Z,11.95
2023-05-06T20:05:23.831Z,11.91
2023-05-06T20:07:51.026Z,11.98
2023-05-06T20:10:17.745Z,11.86
2023-05-06T20:12:44.576Z,11.85
2023-05-06T20:15:11.739Z,11.84
2023-05-06T20:17:38.862Z,11.87
2023-05-06T20:20:10.021Z,11.79
2023-05-06T20:22:37.740Z,11.85
2023-05-06T20:25:11.643Z,11.82
2023-05-06T20:27:39.257Z,11.73
2023-05-06T20:30:08.059Z,11.78
2023-05-06T20:32:34.935Z,11.80
2023-05-06T20:35:01.847Z,11.67
2023-05-06T20:37:28.845Z,11.64
2023-05-06T20:39:55.506Z,11.62
2023-05-06T20:42:22.193Z,11.67
2023-05-06T20:44:50.874Z,11.61
2023-05-06T20:47:17.601Z,11.63
2023-05-06T20:49:44.312Z,11.58
2023-05-06T20:52:14.601Z,11.64
2023-05-06T20:54:42.763Z,11.66
2023-05-06T20:57:09.845Z,11.66
2023-05-06T20:59:36.634Z,11.57
2023-05-06T21:02:03.450Z,11.63
2023-05-06T21:04:30.609Z,11.64
2023-05-06T21:06:57.555Z,11.54
2023-05-06T21:09:24.848Z,11.52
2023-05-06T21:11:51.526Z,11.55
2023-05-06T21:14:18.946Z,11.49
2023-05-06T21:16:45.686Z,11.49
2023-05-06T21:19:12.343Z,11.45
2023-05-06T21:21:39.068Z,11.41
2023-05-06T21:24:05.986Z,11.47
2023-05-06T21:26:32.893Z,11.46
2023-05-06T21:28:59.544Z,11.41
2023-05-06T21:31:26.938Z,11.46
2023-05-06T21:33:58.323Z,11.38
2023-05-06T21:36:25.017Z,11.38
2023-05-06T21:39:09.526Z,11.26
2023-05-06T21:41:36.452Z,11.22
2023-05-06T21:44:04.461Z,11.20
2023-05-06T21:46:32.027Z,11.19
2023-05-06T21:48:59.364Z,11.26
2023-05-06T21:51:32.404Z,11.19
2023-05-06T21:53:59.183Z,11.19
2023-05-06T21:56:25.949Z,11.15
2023-05-06T21:58:53.299Z,11.16
2023-05-06T22:01:20.009Z,11.22
2023-05-06T22:03:48.083Z,11.16
2023-05-06T22:06:15.718Z,11.26
2023-05-06T22:08:42.478Z,11.16
2023-05-06T22:11:09.179Z,11.11
2023-05-06T22:13:36.293Z,11.15
2023-05-06T22:16:03.081Z,11.13
2023-05-06T22:18:30.182Z,11.10
2023-05-06T22:20:56.920Z,11.14
2023-05-06T22:23:24.526Z,11.24
2023-05-06T22:25:54.444Z,11.15
2023-05-06T22:28:21.702Z,11.18
2023-05-06T22:30:48.431Z,11.21
2023-05-06T22:33:15.192Z,11.17
2023-05-06T22:35:41.944Z,11.14
2023-05-06T22:38:08.674Z,11.12
2023-05-06T22:40:35.398Z,11.16
2023-05-06T22:43:02.099Z,11.11
2023-05-06T22:45:28.781Z,11.08
2023-05-06T22:47:56.068Z,11.05
2023-05-06T22:50:22.900Z,11.07
2023-05-06T22:52:49.593Z,11.10
2023-05-06T22:55:16.281Z,11.01
2023-05-06T22:57:42.994Z,11.08
2023-05-06T23:00:12.502Z,11.07
2023-05-06T23:02:39.894Z,11.12
2023-05-06T23:05:06.845Z,11.13
2023-05-06T23:07:33.718Z,11.12
2023-05-06T23:10:00.935Z,11.04
2023-05-06T23:12:32.168Z,11.04
2023-05-06T23:14:59.066Z,10.99
2023-05-06T23:17:25.840Z,10.94
2023-05-06T23:19:52.753Z,10.86
2023-05-06T23:22:19.406Z,10.84
2023-05-06T23:24:46.126Z,10.83
2023-05-06T23:27:12.775Z,10.76
2023-05-06T23:29:39.439Z,10.83
2023-05-06T23:32:06.454Z,10.79
2023-05-06T23:34:33.100Z,10.78
2023-05-06T23:36:59.897Z,10.76
2023-05-06T23:39:26.600Z,10.85
2023-05-06T23:41:53.280Z,10.78
2023-05-06T23:44:20.042Z,10.77
2023-05-06T23:46:46.822Z,10.79
2023-05-06T23:49:13.630Z,10.71
2023-05-06T23:51:40.277Z,10.70
2023-05-06T23:54:06.953Z,10.87
2023-05-06T23:56:33.646Z,10.88
2023-05-06T23:59:00.348Z,10.98
